createdAt,value
2022-11-02T00:02:02.933Z,70.03
2022-11-02T00:04:30.719Z,70.05
2022-11-02T00:07:04.494Z,70.21
2022-11-02T00:09:39.149Z,70.26
2022-11-02T00:12:11.413Z,70.71
2022-11-02T00:14:44.956Z,71.12
2022-11-02T00:17:13.045Z,71.27
2022-11-02T00:19:40.818Z,72.00
2022-11-02T00:22:09.173Z,71.92
2022-11-02T00:24:37.633Z,71.45
2022-11-02T00:27:05.633Z,71.52
2022-11-02T00:29:59.517Z,71.51
2022-11-02T00:32:28.703Z,71.08
2022-11-02T00:34:57.559Z,70.85
2022-11-02T00:37:50.283Z,71.04
2022-11-02T00:40:19.186Z,70.95
2022-11-02T00:42:49.144Z,71.15
2022-11-02T00:45:23.556Z,71.42
2022-11-02T00:47:52.533Z,71.72
2022-11-02T00:50:20.646Z,72.03
2022-11-02T00:52:48.076Z,71.97
2022-11-02T00:55:16.198Z,72.03
2022-11-02T00:57:45.574Z,71.45
2022-11-02T01:00:15.594Z,71.18
2022-11-02T01:02:43.925Z,71.13
2022-11-02T01:05:12.942Z,70.97
2022-11-02T01:07:41.495Z,70.68
2022-11-02T01:10:11.405Z,70.72
2022-11-02T01:12:40.925Z,70.47
2022-11-02T01:15:11.738Z,69.95
2022-11-02T01:17:40.160Z,70.06
2022-11-02T01:20:10.294Z,70.23
2022-11-02T01:22:38.146Z,70.53
2022-11-02T01:25:06.822Z,70.58
2022-11-02T01:27:36.098Z,70.65
2022-11-02T01:30:06.069Z,70.63
2022-11-02T01:32:33.844Z,70.59
2022-11-02T01:35:03.299Z,70.68
2022-11-02T01:37:31.892Z,70.63
2022-11-02T01:39:59.546Z,70.76
2022-11-02T01:42:29.080Z,70.24
2022-11-02T01:44:57.174Z,70.74
2022-11-02T01:47:33.502Z,70.70
2022-11-02T01:50:12.582Z,70.83
2022-11-02T01:52:40.687Z,70.98
2022-11-02T01:55:33.501Z,71.07
2022-11-02T01:58:07.809Z,71.07
2022-11-02T02:00:36.309Z,70.80
2022-11-02T02:03:18.387Z,70.97
2022-11-02T02:05:58.040Z,70.67
2022-11-02T02:08:27.559Z,70.61
2022-11-02T02:10:59.635Z,70.64
2022-11-02T02:13:29.531Z,70.16
2022-11-02T02:16:41.211Z,70.41
2022-11-02T02:19:37.321Z,70.56
2022-11-02T02:22:16.652Z,71.10
2022-11-02T02:25:26.321Z,71.33
2022-11-02T02:28:20.935Z,71.81
2022-11-02T02:31:18.108Z,71.96
2022-11-02T02:34:12.290Z,72.08
2022-11-02T02:36:52.699Z,72.42
2022-11-02T02:39:46.669Z,72.47
2022-11-02T02:42:30.725Z,72.66
2022-11-02T02:45:35.775Z,72.63
2022-11-02T02:48:09.783Z,72.50
2022-11-02T02:51:03.143Z,73.11
2022-11-02T02:53:39.255Z,73.36
2022-11-02T02:56:08.305Z,73.27
2022-11-02T02:58:51.532Z,73.09
2022-11-02T03:01:20.263Z,72.63
2022-11-02T03:03:48.767Z,72.64
2022-11-02T03:06:28.489Z,72.44
2022-11-02T03:09:10.658Z,72.33
2022-11-02T03:11:56.480Z,72.09
2022-11-02T03:14:39.161Z,71.82
2022-11-02T03:17:15.675Z,71.67
2022-11-02T03:19:53.972Z,71.16
2022-11-02T03:22:34.282Z,71.17
2022-11-02T03:25:20.692Z,70.79
2022-11-02T03:28:08.488Z,70.74
2022-11-02T03:30:45.316Z,70.63
2022-11-02T03:33:26.784Z,70.81
2022-11-02T03:36:03.056Z,70.67
2022-11-02T03:38:51.264Z,70.59
2022-11-02T03:41:22.583Z,70.68
2022-11-02T03:44:03.745Z,70.67
2022-11-02T03:46:34.860Z,71.03
2022-11-02T03:49:13.952Z,70.55
2022-11-02T03:51:44.443Z,70.15
2022-11-02T03:55:08.709Z,70.34
2022-11-02T03:57:52.816Z,70.53
2022-11-02T04:00:28.143Z,70.69
2022-11-02T04:03:08.672Z,70.57
2022-11-02T04:05:41.284Z,71.18
2022-11-02T04:08:33.628Z,70.82
2022-11-02T04:11:24.580Z,70.96
2022-11-02T04:14:12.938Z,70.80
2022-11-02T04:16:44.743Z,70.78
2022-11-02T04:19:28.427Z,70.66
2022-11-02T04:22:21.071Z,70.63
2022-11-02T04:25:12.430Z,70.62
2022-11-02T04:27:41.482Z,70.57
2022-11-02T04:30:12.352Z,70.56
2022-11-02T04:33:01.591Z,70.66
2022-11-02T04:35:44.613Z,71.12
2022-11-02T04:38:31.518Z,70.96
2022-11-02T04:41:38.547Z,70.96
2022-11-02T04:44:18.134Z,71.02
2022-11-02T04:46:53.597Z,71.15
2022-11-02T04:49:24.532Z,71.15
2022-11-02T04:51:53.628Z,71.48
2022-11-02T04:54:21.729Z,71.57
2022-11-02T04:57:02.392Z,71.62
2022-11-02T04:59:31.264Z,71.49
2022-11-02T05:01:59.961Z,71.16
2022-11-02T05:04:29.387Z,70.99
2022-11-02T05:07:01.498Z,71.35
2022-11-02T05:09:34.826Z,71.06
2022-11-02T05:12:05.675Z,71.07
2022-11-02T05:14:34.732Z,70.72
2022-11-02T05:17:03.148Z,70.91
2022-11-02T05:19:31.620Z,70.95
2022-11-02T05:22:01.744Z,71.14
2022-11-02T05:24:30.956Z,71.13
2022-11-02T05:26:58.712Z,71.17
2022-11-02T05:29:27.407Z,71.14
2022-11-02T05:31:55.136Z,71.29
2022-11-02T05:34:23.522Z,71.10
2022-11-02T05:36:51.398Z,71.18
2022-11-02T05:39:19.121Z,71.05
2022-11-02T05:41:47.725Z,71.06
2022-11-02T05:44:16.226Z,70.91
2022-11-02T05:46:45.677Z,70.89
2022-11-02T05:49:13.338Z,71.10
2022-11-02T05:51:41.215Z,71.14
2022-11-02T05:54:09.113Z,71.09
2022-11-02T05:56:36.981Z,71.15
2022-11-02T05:59:04.436Z,71.45
2022-11-02T06:01:32.282Z,71.45
2022-11-02T06:04:00.301Z,71.36
2022-11-02T06:06:27.871Z,71.54
2022-11-02T06:08:55.709Z,71.66
2022-11-02T06:11:23.614Z,71.64
2022-11-02T06:13:51.934Z,71.48
2022-11-02T06:16:23.282Z,71.59
2022-11-02T06:18:51.191Z,71.70
2022-11-02T06:21:19.047Z,72.35
2022-11-02T06:23:50.794Z,72.55
2022-11-02T06:26:19.215Z,72.36
2022-11-02T06:28:46.978Z,72.44
2022-11-02T06:31:17.724Z,72.21
2022-11-02T06:33:46.361Z,72.35
2022-11-02T06:36:13.951Z,72.05
2022-11-02T06:38:42.526Z,72.18
2022-11-02T06:41:10.805Z,72.34
2022-11-02T06:43:40.209Z,71.86
2022-11-02T06:46:08.564Z,72.08
2022-11-02T06:48:36.406Z,71.96
2022-11-02T06:51:06.680Z,71.91
2022-11-02T06:53:39.010Z,72.11
2022-11-02T06:56:09.246Z,72.87
2022-11-02T06:58:40.365Z,72.69
2022-11-02T07:01:09.621Z,72.23
2022-11-02T07:03:37.515Z,71.66
2022-11-02T07:06:11.075Z,71.52
2022-11-02T07:08:42.929Z,71.55
2022-11-02T07:11:16.719Z,78.18
2022-11-02T07:13:44.565Z,72.98
2022-11-02T07:16:12.276Z,72.88
2022-11-02T07:18:40.904Z,72.81
2022-11-02T07:21:10.780Z,71.20
2022-11-02T07:23:38.764Z,71.20
2022-11-02T07:26:06.552Z,69.74
2022-11-02T07:28:37.176Z,69.54
2022-11-02T07:31:05.703Z,68.85
2022-11-02T07:33:35.535Z,68.65
2022-11-02T07:36:04.599Z,68.70
2022-11-02T07:38:32.134Z,70.08
2022-11-02T07:40:59.913Z,69.34
2022-11-02T07:43:27.439Z,68.77
2022-11-02T07:46:02.380Z,67.90
2022-11-02T07:48:29.714Z,67.60
2022-11-02T07:51:00.443Z,68.82
2022-11-02T07:53:28.108Z,66.95
2022-11-02T07:55:56.297Z,66.29
2022-11-02T07:58:23.961Z,65.65
2022-11-02T08:00:54.759Z,65.35
2022-11-02T08:03:24.715Z,65.21
2022-11-02T08:05:52.509Z,65.72
2022-11-02T08:08:24.638Z,66.09
2022-11-02T08:10:53.265Z,65.34
2022-11-02T08:13:23.456Z,64.64
2022-11-02T08:15:52.509Z,64.73
2022-11-02T08:18:27.554Z,65.30
2022-11-02T08:20:59.858Z,64.50
2022-11-02T08:23:27.819Z,64.17
2022-11-02T08:25:55.823Z,63.74
2022-11-02T08:28:31.572Z,63.63
2022-11-02T08:31:00.028Z,64.18
2022-11-02T08:33:27.777Z,63.80
2022-11-02T08:35:55.262Z,63.38
2022-11-02T08:38:23.099Z,63.23
2022-11-02T08:40:50.539Z,63.58
2022-11-02T08:43:17.781Z,62.77
2022-11-02T08:48:33.830Z,62.46
2022-11-02T08:51:01.976Z,62.27
2022-11-02T08:53:30.001Z,61.74
2022-11-02T08:55:59.457Z,61.71
2022-11-02T08:58:31.116Z,61.74
2022-11-02T09:00:59.888Z,62.00
2022-11-02T09:03:28.593Z,61.55
2022-11-02T09:06:01.174Z,60.84
2022-11-02T09:08:30.548Z,61.11
2022-11-02T09:11:00.895Z,60.95
2022-11-02T09:13:29.074Z,60.61
2022-11-02T09:15:58.397Z,59.97
2022-11-02T09:18:29.498Z,59.95
2022-11-02T09:20:57.144Z,59.87
2022-11-02T09:23:25.869Z,59.61
2022-11-02T09:25:54.340Z,59.97
2022-11-02T09:28:27.957Z,58.52
2022-11-02T09:31:00.942Z,58.54
2022-11-02T09:33:30.132Z,59.12
2022-11-02T09:36:03.552Z,60.52
2022-11-02T09:38:31.519Z,58.17
2022-11-02T09:40:58.924Z,59.71
2022-11-02T09:43:35.009Z,58.07
2022-11-02T09:46:26.716Z,58.50
2022-11-02T09:49:06.151Z,58.19
2022-11-02T09:51:37.916Z,57.33
2022-11-02T09:54:35.332Z,57.77
2022-11-02T09:57:10.789Z,57.31
2022-11-02T09:59:38.307Z,54.06
2022-11-02T10:02:31.177Z,57.52
2022-11-02T10:05:10.207Z,54.77
2022-11-02T10:08:08.726Z,53.95
2022-11-02T10:11:17.444Z,53.02
2022-11-02T10:14:05.209Z,53.47
2022-11-02T10:16:40.615Z,53.90
2022-11-02T10:19:18.297Z,53.58
2022-11-02T10:21:49.237Z,54.28
2022-11-02T10:24:46.082Z,53.28
2022-11-02T10:27:26.724Z,52.54
2022-11-02T10:30:19.615Z,54.05
2022-11-02T10:32:55.172Z,53.93
2022-11-02T10:36:04.904Z,53.24
2022-11-02T10:38:36.630Z,54.37
2022-11-02T10:41:40.424Z,53.32
2022-11-02T10:44:45.135Z,53.56
2022-11-02T10:47:20.835Z,52.80
2022-11-02T10:50:12.725Z,53.11
2022-11-02T10:52:44.931Z,53.15
2022-11-02T10:55:40.625Z,53.69
2022-11-02T10:58:15.941Z,53.22
2022-11-02T11:00:44.922Z,52.42
2022-11-02T11:03:15.128Z,52.48
2022-11-02T11:05:52.049Z,52.43
2022-11-02T11:08:42.157Z,53.64
2022-11-02T11:11:26.513Z,52.89
2022-11-02T11:20:07.268Z,52.51
2022-11-02T11:22:40.106Z,53.25
2022-11-02T11:25:13.425Z,52.97
2022-11-02T11:27:48.312Z,52.85
2022-11-02T11:33:33.464Z,52.34
2022-11-02T11:36:01.683Z,52.24
2022-11-02T11:38:29.192Z,52.54
2022-11-02T11:40:59.802Z,50.91
2022-11-02T11:43:31.338Z,51.22
2022-11-02T11:46:06.246Z,50.64
2022-11-02T11:48:40.289Z,50.59
2022-11-02T11:51:28.170Z,51.67
2022-11-02T11:54:43.939Z,50.97
2022-11-02T11:57:29.597Z,50.61
2022-11-02T12:00:00.250Z,51.11
2022-11-02T12:02:27.884Z,49.99
2022-11-02T12:05:22.492Z,50.81
2022-11-02T12:08:09.023Z,50.10
2022-11-02T12:11:19.295Z,49.22
2022-11-02T12:14:31.311Z,48.63
2022-11-02T12:17:22.764Z,49.24
2022-11-02T12:20:27.949Z,49.52
2022-11-02T12:23:13.760Z,49.27
2022-11-02T12:25:52.211Z,48.90
2022-11-02T12:28:45.844Z,49.92
2022-11-02T12:31:37.493Z,49.13
2022-11-02T12:34:36.963Z,49.75
2022-11-02T12:37:40.776Z,48.40
2022-11-02T12:40:30.970Z,48.32
2022-11-02T12:43:13.820Z,49.67
2022-11-02T12:46:30.711Z,50.17
2022-11-02T12:49:27.592Z,49.68
2022-11-02T12:52:27.110Z,49.66
2022-11-02T12:55:01.686Z,49.24
2022-11-02T12:57:35.016Z,45.61
2022-11-02T13:00:07.910Z,46.06
2022-11-02T13:02:57.360Z,48.71
2022-11-02T13:05:35.125Z,49.06
2022-11-02T13:08:23.275Z,48.37
2022-11-02T13:10:59.677Z,48.42
2022-11-02T13:13:33.604Z,48.07
2022-11-02T13:16:04.594Z,48.59
2022-11-02T13:18:43.881Z,47.89
2022-11-02T13:21:22.404Z,48.29
2022-11-02T13:23:58.787Z,49.72
2022-11-02T13:26:43.226Z,50.34
2022-11-02T13:29:37.950Z,49.92
2022-11-02T13:32:40.222Z,49.65
2022-11-02T13:38:47.430Z,50.15
2022-11-02T13:41:20.552Z,49.91
2022-11-02T13:43:47.990Z,50.31
2022-11-02T13:46:48.247Z,52.01
2022-11-02T13:49:19.345Z,51.78
2022-11-02T13:51:57.388Z,52.74
2022-11-02T13:57:39.140Z,54.25
2022-11-02T14:00:32.026Z,54.33
2022-11-02T14:03:34.034Z,52.74
2022-11-02T14:06:12.442Z,51.46
2022-11-02T14:08:49.594Z,53.09
2022-11-02T14:11:17.590Z,53.31
2022-11-02T14:13:57.648Z,52.63
2022-11-02T14:16:43.954Z,54.73
2022-11-02T14:19:24.393Z,54.82
2022-11-02T14:21:52.956Z,54.81
2022-11-02T14:24:39.784Z,55.40
2022-11-02T14:27:14.390Z,55.10
2022-11-02T14:29:47.588Z,55.91
2022-11-02T14:32:37.981Z,55.68
2022-11-02T14:35:23.933Z,56.93
2022-11-02T14:38:14.000Z,57.40
2022-11-02T14:41:05.770Z,57.30
2022-11-02T14:44:03.920Z,56.93
2022-11-02T14:46:38.377Z,58.11
2022-11-02T14:49:18.081Z,59.33
2022-11-02T14:52:04.702Z,58.95
2022-11-02T14:54:40.805Z,59.21
2022-11-02T14:57:30.303Z,59.30
2022-11-02T15:00:02.655Z,59.29
2022-11-02T15:02:41.965Z,58.76
2022-11-02T15:05:23.109Z,59.11
2022-11-02T15:07:50.831Z,58.46
2022-11-02T15:10:18.621Z,59.26
2022-11-02T15:12:50.435Z,59.77
2022-11-02T15:15:37.311Z,59.94
2022-11-02T15:18:28.374Z,60.36
2022-11-02T15:21:10.516Z,60.54
2022-11-02T15:23:47.223Z,61.46
2022-11-02T15:26:48.516Z,61.26
2022-11-02T15:29:31.695Z,61.39
2022-11-02T15:32:02.494Z,61.54
2022-11-02T15:34:48.127Z,61.02
2022-11-02T15:37:29.304Z,60.86
2022-11-02T15:40:04.243Z,60.34
2022-11-02T15:42:48.342Z,60.06
2022-11-02T15:45:46.789Z,59.22
2022-11-02T15:48:57.446Z,59.64
2022-11-02T15:51:45.694Z,59.66
2022-11-02T15:54:29.065Z,59.72
2022-11-02T15:57:05.259Z,59.10
2022-11-02T15:59:37.685Z,58.64
2022-11-02T16:02:56.724Z,58.64
2022-11-02T16:05:27.406Z,58.95
2022-11-02T16:08:10.476Z,58.89
2022-11-02T16:10:39.522Z,59.55
2022-11-02T16:13:20.690Z,60.04
2022-11-02T16:15:50.244Z,60.64
2022-11-02T16:18:30.224Z,60.52
2022-11-02T16:21:01.605Z,60.95
2022-11-02T16:23:49.445Z,61.85
2022-11-02T16:26:27.082Z,61.60
2022-11-02T16:29:00.867Z,62.13
2022-11-02T16:31:32.968Z,62.24
2022-11-02T16:34:30.691Z,62.39
2022-11-02T16:37:03.768Z,62.78
2022-11-02T16:39:42.310Z,62.81
2022-11-02T16:42:26.920Z,62.99
2022-11-02T16:45:05.938Z,63.30
2022-11-02T16:47:43.978Z,64.50
2022-11-02T16:50:24.191Z,63.62
2022-11-02T16:52:57.498Z,63.73
2022-11-02T16:55:43.626Z,64.19
2022-11-02T16:58:27.274Z,64.89
2022-11-02T17:01:05.896Z,65.23
2022-11-02T17:03:35.326Z,65.16
2022-11-02T17:06:07.962Z,65.54
2022-11-02T17:08:41.091Z,65.38
2022-11-02T17:11:16.023Z,65.64
2022-11-02T17:14:01.839Z,65.97
2022-11-02T17:16:37.622Z,66.12
2022-11-02T17:19:40.581Z,66.17
2022-11-02T17:22:15.761Z,66.29
2022-11-02T17:24:43.896Z,66.75
2022-11-02T17:27:25.113Z,66.86
2022-11-02T17:29:57.485Z,66.64
2022-11-02T17:32:25.747Z,66.84
2022-11-02T17:34:56.468Z,66.92
2022-11-02T17:37:32.396Z,67.17
2022-11-02T17:40:03.798Z,67.52
2022-11-02T17:42:54.988Z,67.62
2022-11-02T17:45:40.480Z,67.43
2022-11-02T17:48:11.124Z,67.74
2022-11-02T17:50:40.988Z,67.94
2022-11-02T17:53:13.479Z,68.08
2022-11-02T17:55:41.371Z,68.01
2022-11-02T17:58:10.378Z,68.14
2022-11-02T18:00:41.770Z,68.24
2022-11-02T18:03:19.453Z,68.52
2022-11-02T18:05:51.588Z,68.84
2022-11-02T18:08:21.260Z,68.85
2022-11-02T18:10:52.220Z,68.91
2022-11-02T18:13:35.383Z,68.99
2022-11-02T18:16:04.937Z,69.40
2022-11-02T18:18:32.435Z,69.19
2022-11-02T18:20:59.987Z,69.38
2022-11-02T18:23:31.755Z,69.42
2022-11-02T18:26:00.107Z,69.28
2022-11-02T18:28:28.030Z,69.08
2022-11-02T18:30:55.588Z,69.30
2022-11-02T18:33:23.491Z,69.18
2022-11-02T18:35:53.429Z,69.53
2022-11-02T18:38:20.959Z,69.62
2022-11-02T18:40:49.550Z,69.45
2022-11-02T18:43:17.146Z,69.56
2022-11-02T18:45:50.367Z,69.65
2022-11-02T18:48:18.095Z,69.62
2022-11-02T18:50:46.186Z,69.78
2022-11-02T18:53:14.233Z,69.90
2022-11-02T18:55:42.359Z,69.92
2022-11-02T18:58:12.356Z,70.01
2022-11-02T19:00:48.245Z,70.20
2022-11-02T19:03:20.544Z,70.01
2022-11-02T19:06:06.985Z,70.27
2022-11-02T19:08:53.264Z,70.19
2022-11-02T19:11:21.069Z,70.04
2022-11-02T19:13:48.526Z,70.13
2022-11-02T19:16:16.548Z,70.22
2022-11-02T19:18:44.560Z,70.12
2022-11-02T19:21:12.292Z,70.34
2022-11-02T19:23:45.315Z,69.88
2022-11-02T19:26:14.454Z,69.64
2022-11-02T19:28:42.400Z,69.08
2022-11-02T19:31:12.514Z,68.96
2022-11-02T19:33:40.883Z,68.96
2022-11-02T19:36:09.375Z,68.63
2022-11-02T19:38:38.917Z,68.74
2022-11-02T19:41:19.434Z,68.72
2022-11-02T19:43:47.723Z,69.04
2022-11-02T19:46:24.787Z,69.04
2022-11-02T19:48:53.374Z,69.43
2022-11-02T19:51:22.468Z,69.27
2022-11-02T19:53:58.650Z,69.36
2022-11-02T19:56:30.581Z,69.26
2022-11-02T19:58:59.050Z,69.05
2022-11-02T20:01:29.908Z,69.01
2022-11-02T20:03:59.451Z,69.03
2022-11-02T20:06:33.557Z,68.74
2022-11-02T20:09:06.394Z,68.67
2022-11-02T20:11:36.822Z,68.85
2022-11-02T20:14:06.225Z,68.68
2022-11-02T20:16:34.039Z,68.77
2022-11-02T20:19:01.654Z,68.81
2022-11-02T20:21:34.565Z,69.03
2022-11-02T20:24:06.632Z,69.19
2022-11-02T20:26:43.722Z,68.71
2022-11-02T20:29:15.355Z,68.56
2022-11-02T20:31:46.265Z,68.40
2022-11-02T20:34:18.464Z,68.36
2022-11-02T20:36:47.998Z,68.36
2022-11-02T20:39:25.034Z,68.68
2022-11-02T20:41:56.373Z,68.43
2022-11-02T20:44:24.441Z,67.98
2022-11-02T20:46:53.247Z,68.10
2022-11-02T20:49:48.652Z,67.95
2022-11-02T20:52:11.402Z,67.88
2022-11-02T20:54:39.065Z,68.08
2022-11-02T20:57:14.257Z,67.97
2022-11-02T20:59:45.645Z,67.91
2022-11-02T21:02:14.457Z,67.76
2022-11-02T21:04:42.262Z,68.09
2022-11-02T21:07:09.962Z,68.04
2022-11-02T21:09:41.382Z,67.81
2022-11-02T21:12:41.182Z,67.83
2022-11-02T21:15:09.539Z,67.78
2022-11-02T21:17:37.163Z,67.65
2022-11-02T21:20:35.408Z,67.56
2022-11-02T21:22:53.625Z,67.54
2022-11-02T21:25:21.552Z,67.00
2022-11-02T21:27:56.152Z,67.07
2022-11-02T21:30:23.786Z,67.03
2022-11-02T21:33:12.686Z,67.05
2022-11-02T21:35:43.274Z,67.14
2022-11-02T21:38:10.949Z,67.37
2022-11-02T21:40:38.827Z,67.25
2022-11-02T21:43:06.974Z,66.99
2022-11-02T21:45:37.916Z,66.81
2022-11-02T21:48:06.624Z,66.90
2022-11-02T21:50:34.737Z,66.42
2022-11-02T21:53:02.401Z,66.78
2022-11-02T21:55:30.157Z,66.56
2022-11-02T21:57:57.494Z,66.62
2022-11-02T22:00:45.085Z,66.73
2022-11-02T22:03:12.678Z,66.48
2022-11-02T22:05:56.138Z,66.16
2022-11-02T22:08:40.352Z,66.52
2022-11-02T22:11:23.412Z,66.65
2022-11-02T22:14:01.798Z,66.75
2022-11-02T22:16:42.967Z,67.40
2022-11-02T22:19:15.750Z,67.53
2022-11-02T22:21:45.764Z,67.47
2022-11-02T22:24:13.738Z,67.77
2022-11-02T22:26:42.166Z,67.85
2022-11-02T22:29:23.803Z,67.99
2022-11-02T22:31:51.995Z,68.05
2022-11-02T22:34:20.036Z,67.98
2022-11-02T22:36:50.179Z,68.04
2022-11-02T22:39:21.790Z,68.02
2022-11-02T22:41:50.464Z,67.83
2022-11-02T22:44:21.324Z,67.87
2022-11-02T22:46:50.470Z,68.40
2022-11-02T22:49:20.254Z,68.48
2022-11-02T22:51:50.367Z,68.42
2022-11-02T22:54:19.846Z,68.01
2022-11-02T22:56:49.243Z,68.24
2022-11-02T22:59:17.515Z,68.26
2022-11-02T23:01:45.602Z,68.03
2022-11-02T23:04:13.939Z,68.10
2022-11-02T23:06:41.317Z,68.31
2022-11-02T23:09:12.594Z,67.99
2022-11-02T23:11:44.482Z,68.00
2022-11-02T23:14:14.530Z,68.29
2022-11-02T23:16:44.366Z,68.50
2022-11-02T23:19:33.059Z,68.64
2022-11-02T23:22:25.850Z,68.74
2022-11-02T23:25:12.404Z,68.94
2022-11-02T23:28:27.490Z,68.97
2022-11-02T23:31:15.028Z,68.98
2022-11-02T23:33:42.576Z,69.03
2022-11-02T23:36:14.162Z,69.29
2022-11-02T23:39:03.233Z,69.45
2022-11-02T23:41:32.953Z,69.65
2022-11-02T23:44:14.320Z,69.41
2022-11-02T23:46:44.312Z,69.41
2022-11-02T23:49:13.642Z,69.42
2022-11-02T23:52:00.377Z,69.56
2022-11-02T23:54:47.151Z,69.25
2022-11-02T23:57:14.694Z,69.24
2022-11-02T23:59:42.308Z,69.21
